Terminal Aerodrome Forecast
Issued by NWS

Home | Current Version | Previous Version | Text Only | Print | Product List | Glossary On
Versions: 1 2 3 4 5 6 7 8 9 10 11 12 13 14 15 16 17 18 19 20 21 22 23 24 25 26 27
000
FTUS43 KGRR 251337 AAA
TAFAZO
TAF AMD
KAZO 251337Z 2514/2612 29012KT 1/2SM SN BKN014 BKN020 OVC025
     FM251401 28012KT 6SM -SHSN BKN015 OVC025
     FM251500 27017G25KT 3SM -SHSN OVC010
      TEMPO 2515/2518 1SM -SHSN BKN007
     FM251800 28019G26KT 2SM -SHSN OVC025
     FM252000 27019G27KT 4SM -SHSN OVC025
     FM260100 28012KT P6SM -SHSN OVC030=

USA.gov is the U.S. government's official web portal to all federal, state and local government web resources and services.